createdAt,value
2022-12-15T00:00:19.435Z,13.33
2022-12-15T00:03:04.826Z,13.43
2022-12-15T00:05:50.423Z,15.67
2022-12-15T00:08:36.218Z,14.10
2022-12-15T00:11:22.798Z,13.37
2022-12-15T00:14:08.087Z,12.93
2022-12-15T00:16:54.889Z,12.83
2022-12-15T00:19:40.055Z,12.00
2022-12-15T00:22:25.718Z,15.67
2022-12-15T00:25:11.100Z,14.63
2022-12-15T00:27:56.435Z,17.00
2022-12-15T00:30:41.517Z,14.53
2022-12-15T00:33:30.010Z,14.63
2022-12-15T00:36:17.663Z,15.53
2022-12-15T00:38:45.993Z,13.73
2022-12-15T00:41:15.154Z,14.97
2022-12-15T00:43:43.781Z,12.90
2022-12-15T00:46:29.620Z,15.53
2022-12-15T00:48:59.640Z,14.27
2022-12-15T00:51:45.449Z,13.37
2022-12-15T00:54:30.684Z,15.70
2022-12-15T00:57:15.804Z,12.37
2022-12-15T01:00:01.361Z,13.23
2022-12-15T01:02:47.733Z,12.90
2022-12-15T01:05:34.801Z,15.40
2022-12-15T01:08:21.679Z,14.20
2022-12-15T01:11:06.853Z,18.23
2022-12-15T01:13:52.116Z,14.17
2022-12-15T01:16:37.474Z,12.83
2022-12-15T01:19:22.652Z,13.20
2022-12-15T01:21:53.266Z,12.80
2022-12-15T01:24:21.497Z,12.03
2022-12-15T01:26:50.619Z,13.30
2022-12-15T01:29:18.683Z,11.90
2022-12-15T01:31:49.796Z,11.80
2022-12-15T01:34:19.989Z,12.73
2022-12-15T01:36:47.925Z,14.30
2022-12-15T01:39:17.297Z,13.80
2022-12-15T01:41:44.550Z,12.37
2022-12-15T01:44:21.243Z,11.50
2022-12-15T01:46:51.095Z,15.93
2022-12-15T01:49:24.760Z,13.17
2022-12-15T01:51:57.193Z,13.47
2022-12-15T01:54:32.178Z,12.17
2022-12-15T01:57:04.434Z,13.47
2022-12-15T01:59:36.609Z,14.30
2022-12-15T02:02:05.258Z,11.73
2022-12-15T02:04:35.269Z,12.27
2022-12-15T02:07:03.059Z,12.53
2022-12-15T02:09:33.798Z,12.87
2022-12-15T02:12:08.818Z,11.70
2022-12-15T02:14:53.986Z,14.33
2022-12-15T02:17:30.998Z,11.83
2022-12-15T02:20:38.185Z,13.40
2022-12-15T02:23:35.495Z,13.30
2022-12-15T02:30:17.152Z,11.63
2022-12-15T02:32:54.995Z,14.00
2022-12-15T02:35:30.372Z,10.33
2022-12-15T02:37:59.008Z,13.37
2022-12-15T02:40:27.089Z,13.03
2022-12-15T02:42:58.251Z,11.20
2022-12-15T02:45:37.542Z,11.67
2022-12-15T02:48:19.288Z,12.33
2022-12-15T02:51:00.009Z,12.70
2022-12-15T02:53:43.539Z,12.10
2022-12-15T02:56:19.273Z,10.70
2022-12-15T02:58:53.942Z,10.93
2022-12-15T03:01:30.724Z,9.97
2022-12-15T03:04:00.419Z,12.90
2022-12-15T03:06:29.285Z,11.50
2022-12-15T03:08:57.086Z,15.03
2022-12-15T03:11:25.063Z,12.17
2022-12-15T03:13:54.416Z,12.10
2022-12-15T03:16:24.695Z,9.67
2022-12-15T03:18:53.284Z,11.67
2022-12-15T03:21:21.212Z,10.80
2022-12-15T03:23:49.084Z,10.47
2022-12-15T03:26:17.210Z,11.20
2022-12-15T03:28:45.241Z,11.40
2022-12-15T03:31:13.111Z,10.13
2022-12-15T03:33:42.692Z,11.37
2022-12-15T03:36:11.222Z,11.43
2022-12-15T03:38:39.269Z,9.87
2022-12-15T03:41:07.423Z,12.67
2022-12-15T03:43:35.682Z,11.17
2022-12-15T03:46:03.834Z,11.47
2022-12-15T03:48:31.822Z,12.80
2022-12-15T03:51:01.196Z,9.53
2022-12-15T03:53:29.591Z,10.73
2022-12-15T03:55:58.262Z,11.53
2022-12-15T03:58:26.331Z,10.93
2022-12-15T04:00:55.776Z,11.23
2022-12-15T04:03:23.866Z,11.53
2022-12-15T04:05:53.351Z,10.87
2022-12-15T04:08:26.853Z,10.00
2022-12-15T04:10:54.818Z,10.03
2022-12-15T04:13:22.914Z,10.13
2022-12-15T04:15:50.732Z,10.83
2022-12-15T04:18:18.652Z,11.37
2022-12-15T04:20:46.969Z,9.73
2022-12-15T04:23:18.244Z,10.57
2022-12-15T04:26:05.224Z,11.07
2022-12-15T04:28:50.561Z,10.83
2022-12-15T04:31:38.221Z,10.70
2022-12-15T04:34:26.416Z,10.00
2022-12-15T04:37:12.847Z,11.43
2022-12-15T04:40:01.431Z,9.10
2022-12-15T04:42:49.668Z,11.10
2022-12-15T04:45:37.516Z,10.43
2022-12-15T04:48:23.383Z,11.20
2022-12-15T04:51:08.462Z,11.90
2022-12-15T04:53:54.004Z,10.17
2022-12-15T04:56:39.184Z,10.27
2022-12-15T04:59:26.237Z,11.20
2022-12-15T05:02:12.077Z,12.03
2022-12-15T05:04:57.371Z,11.87
2022-12-15T05:07:43.619Z,9.87
2022-12-15T05:10:29.412Z,9.90
2022-12-15T05:13:21.654Z,10.67
2022-12-15T05:16:08.547Z,10.17
2022-12-15T05:18:54.431Z,11.13
2022-12-15T05:21:39.504Z,10.83
2022-12-15T05:24:25.073Z,10.00
2022-12-15T05:27:11.391Z,11.93
2022-12-15T05:29:56.743Z,11.33
2022-12-15T05:32:27.040Z,13.07
2022-12-15T05:34:55.250Z,10.77
2022-12-15T05:37:24.255Z,10.33
2022-12-15T05:39:52.426Z,10.90
2022-12-15T05:42:20.212Z,9.90
2022-12-15T05:44:49.376Z,9.33
2022-12-15T05:47:18.152Z,11.17
2022-12-15T05:49:47.738Z,15.20
2022-12-15T05:52:15.515Z,11.90
2022-12-15T05:54:44.233Z,9.73
2022-12-15T05:57:12.176Z,12.57
2022-12-15T05:59:40.343Z,13.33
2022-12-15T06:02:08.456Z,9.77
2022-12-15T06:04:36.606Z,10.33
2022-12-15T06:07:07.757Z,11.27
2022-12-15T06:09:35.907Z,11.03
2022-12-15T06:12:04.082Z,10.60
2022-12-15T06:14:33.136Z,11.00
2022-12-15T06:17:01.039Z,10.33
2022-12-15T06:19:28.947Z,10.47
2022-12-15T06:21:57.006Z,10.60
2022-12-15T06:24:27.172Z,10.73
2022-12-15T06:26:55.227Z,12.10
2022-12-15T06:29:23.813Z,12.00
2022-12-15T06:31:51.862Z,12.30
2022-12-15T06:34:20.743Z,11.13
2022-12-15T06:36:49.331Z,10.43
2022-12-15T06:39:18.077Z,10.47
2022-12-15T06:41:47.964Z,11.17
2022-12-15T06:44:17.394Z,10.53
2022-12-15T06:46:46.999Z,11.10
2022-12-15T06:49:15.539Z,12.43
2022-12-15T06:51:44.941Z,10.50
2022-12-15T06:54:13.418Z,11.03
2022-12-15T06:56:41.265Z,12.17
2022-12-15T06:59:13.651Z,11.93
2022-12-15T07:01:42.334Z,9.43
2022-12-15T07:04:11.288Z,13.20
2022-12-15T07:06:40.396Z,9.23
2022-12-15T07:09:10.446Z,10.63
2022-12-15T07:11:38.385Z,10.70
2022-12-15T07:14:06.948Z,12.03
2022-12-15T07:16:36.486Z,10.53
2022-12-15T07:19:05.161Z,11.60
2022-12-15T07:21:33.914Z,11.13
2022-12-15T07:24:03.425Z,10.37
2022-12-15T07:26:31.885Z,11.37
2022-12-15T07:29:00.031Z,11.40
2022-12-15T07:31:28.128Z,10.30
2022-12-15T07:33:58.586Z,10.67
2022-12-15T07:36:27.885Z,10.47
2022-12-15T07:39:00.853Z,12.37
2022-12-15T07:41:30.081Z,12.83
2022-12-15T07:43:59.006Z,13.13
2022-12-15T07:46:28.378Z,11.70
2022-12-15T07:48:58.392Z,10.50
2022-12-15T07:51:26.528Z,11.67
2022-12-15T07:53:55.274Z,14.37
2022-12-15T07:56:23.184Z,11.50
2022-12-15T07:58:53.520Z,11.63
2022-12-15T08:01:25.502Z,12.30
2022-12-15T08:03:54.267Z,14.80
2022-12-15T08:06:23.877Z,17.13
2022-12-15T08:08:52.594Z,15.27
2022-12-15T08:11:22.625Z,15.80
2022-12-15T08:14:02.407Z,10.87
2022-12-15T08:16:31.730Z,13.20
2022-12-15T08:18:59.783Z,12.33
2022-12-15T08:21:31.411Z,14.73
2022-12-15T08:24:01.003Z,12.07
2022-12-15T08:26:31.082Z,12.20
2022-12-15T08:29:32.165Z,12.10
2022-12-15T08:31:51.905Z,12.70
2022-12-15T08:34:19.933Z,12.23
2022-12-15T08:36:49.354Z,11.43
2022-12-15T08:39:21.094Z,11.57
2022-12-15T08:41:49.337Z,12.00
2022-12-15T08:44:17.539Z,12.27
2022-12-15T08:46:45.960Z,12.17
2022-12-15T08:49:19.585Z,11.93
2022-12-15T08:51:52.155Z,13.03
2022-12-15T08:54:22.438Z,11.57
2022-12-15T08:56:51.634Z,10.10
2022-12-15T08:59:20.369Z,11.30
2022-12-15T09:01:48.713Z,10.90
2022-12-15T09:04:16.790Z,10.63
2022-12-15T09:06:50.526Z,10.17
2022-12-15T09:09:24.505Z,12.00
2022-12-15T09:11:52.680Z,11.50
2022-12-15T09:14:27.287Z,12.30
2022-12-15T09:16:58.176Z,10.00
2022-12-15T09:19:26.626Z,13.37
2022-12-15T09:21:54.509Z,13.10
2022-12-15T09:24:34.023Z,12.53
2022-12-15T09:27:03.350Z,13.13
2022-12-15T09:29:32.425Z,12.87
2022-12-15T09:32:00.581Z,14.00
2022-12-15T09:34:29.156Z,11.23
2022-12-15T09:36:57.986Z,12.00
2022-12-15T09:39:27.776Z,13.13
2022-12-15T09:41:59.673Z,11.43
2022-12-15T09:44:33.065Z,11.20
2022-12-15T09:47:16.501Z,12.63
2022-12-15T09:49:55.639Z,10.93
2022-12-15T09:52:27.577Z,12.23
2022-12-15T09:54:59.657Z,9.90
2022-12-15T09:57:48.185Z,11.17
2022-12-15T10:00:22.123Z,11.60
2022-12-15T10:03:07.289Z,12.47
2022-12-15T10:06:21.589Z,11.67
2022-12-15T10:08:35.109Z,13.47
2022-12-15T10:11:07.812Z,10.13
2022-12-15T10:13:42.569Z,11.33
2022-12-15T10:16:19.924Z,11.60
2022-12-15T10:19:01.460Z,9.97
2022-12-15T10:21:32.913Z,10.27
2022-12-15T10:24:11.036Z,10.13
2022-12-15T10:26:42.810Z,11.00
2022-12-15T10:29:30.766Z,11.13
2022-12-15T10:32:03.162Z,9.63
2022-12-15T10:34:34.582Z,11.07
2022-12-15T10:37:03.727Z,12.03
2022-12-15T10:39:40.549Z,11.87
2022-12-15T10:42:16.647Z,11.87
2022-12-15T10:44:50.605Z,10.70
2022-12-15T10:47:22.300Z,12.23
2022-12-15T10:49:51.667Z,10.73
2022-12-15T10:52:27.668Z,10.07
2022-12-15T10:54:56.973Z,10.37
2022-12-15T10:57:30.111Z,9.30
2022-12-15T11:00:23.124Z,9.03
2022-12-15T11:02:51.511Z,10.20
2022-12-15T11:05:19.764Z,9.07
2022-12-15T11:07:51.875Z,9.87
2022-12-15T11:10:22.313Z,9.23
2022-12-15T11:13:03.324Z,10.13
2022-12-15T11:15:40.949Z,10.13
2022-12-15T11:18:28.872Z,8.57
2022-12-15T11:21:04.075Z,9.57
2022-12-15T11:23:46.732Z,10.67
2022-12-15T11:26:25.126Z,10.20
2022-12-15T11:29:00.408Z,10.63
2022-12-15T11:31:35.347Z,9.90
2022-12-15T11:34:03.210Z,11.00
2022-12-15T11:36:55.923Z,9.47
2022-12-15T11:39:38.188Z,9.80
2022-12-15T11:42:17.250Z,8.60
2022-12-15T11:44:56.878Z,9.67
2022-12-15T11:47:34.606Z,9.13
2022-12-15T11:50:20.871Z,8.60
2022-12-15T11:53:02.225Z,9.47
2022-12-15T11:55:41.609Z,9.87
2022-12-15T11:58:38.554Z,11.97
2022-12-15T12:01:18.412Z,9.67
2022-12-15T12:03:57.630Z,10.30
2022-12-15T12:06:35.034Z,8.53
2022-12-15T12:09:26.460Z,9.97
2022-12-15T12:11:58.096Z,9.40
2022-12-15T12:14:37.138Z,12.57
2022-12-15T12:17:09.605Z,9.87
2022-12-15T12:19:42.131Z,10.17
2022-12-15T12:22:18.680Z,9.27
2022-12-15T12:24:50.975Z,11.43
2022-12-15T12:27:27.408Z,8.47
2022-12-15T12:30:02.057Z,9.83
2022-12-15T12:32:46.343Z,10.23
2022-12-15T12:35:32.011Z,9.90
2022-12-15T12:38:04.278Z,8.60
2022-12-15T12:40:45.683Z,8.57
2022-12-15T12:43:28.535Z,7.90
2022-12-15T12:45:59.462Z,9.93
2022-12-15T12:48:34.603Z,8.00
2022-12-15T12:51:18.916Z,9.37
2022-12-15T12:53:47.204Z,8.43
2022-12-15T12:56:39.730Z,9.20
2022-12-15T12:59:37.866Z,9.53
2022-12-15T13:02:42.111Z,8.30
2022-12-15T13:05:27.781Z,9.00
2022-12-15T13:07:57.326Z,8.63
2022-12-15T13:10:26.951Z,8.67
2022-12-15T13:12:55.258Z,10.30
2022-12-15T13:15:40.546Z,11.40
2022-12-15T13:18:16.526Z,10.13
2022-12-15T13:20:48.850Z,9.30
2022-12-15T13:23:37.676Z,10.27
2022-12-15T13:26:16.270Z,8.67
2022-12-15T13:28:51.758Z,9.83
2022-12-15T13:31:34.595Z,9.93
2022-12-15T13:34:26.399Z,8.37
2022-12-15T13:37:38.702Z,8.73
2022-12-15T13:40:33.271Z,8.90
2022-12-15T13:43:10.795Z,8.97
2022-12-15T13:45:51.154Z,7.80
2022-12-15T13:48:35.964Z,8.53
2022-12-15T13:51:23.415Z,9.00
2022-12-15T13:53:59.425Z,7.83
2022-12-15T13:56:54.417Z,8.20
2022-12-15T13:59:30.530Z,8.33
2022-12-15T14:02:04.885Z,8.43
2022-12-15T14:04:32.938Z,7.97
2022-12-15T14:07:03.258Z,7.47
2022-12-15T14:09:35.307Z,8.30
2022-12-15T14:12:04.421Z,9.00
2022-12-15T14:14:37.939Z,8.17
2022-12-15T14:17:10.923Z,8.47
2022-12-15T14:19:40.954Z,7.83
2022-12-15T14:22:27.156Z,10.70
2022-12-15T14:25:04.567Z,8.80
2022-12-15T14:27:34.326Z,10.00
2022-12-15T14:30:14.044Z,7.87
2022-12-15T14:32:43.705Z,13.80
2022-12-15T14:35:14.620Z,14.70
2022-12-15T14:37:44.034Z,12.87
2022-12-15T14:40:20.322Z,20.30
2022-12-15T14:42:56.326Z,27.00
2022-12-15T14:45:28.152Z,27.80
2022-12-15T14:50:51.644Z,18.37
2022-12-15T14:53:22.173Z,15.33
2022-12-15T14:55:51.639Z,13.53
2022-12-15T14:58:34.376Z,11.43
2022-12-15T15:01:04.033Z,11.93
2022-12-15T15:03:38.583Z,10.73
2022-12-15T15:06:18.749Z,9.93
2022-12-15T15:08:49.390Z,10.90
2022-12-15T15:11:29.585Z,9.00
2022-12-15T15:14:00.770Z,9.63
2022-12-15T15:16:28.774Z,9.60
2022-12-15T15:18:57.480Z,9.63
2022-12-15T15:21:27.358Z,10.27
2022-12-15T15:24:03.167Z,13.03
2022-12-15T15:26:33.829Z,11.20
2022-12-15T15:29:02.238Z,9.67
2022-12-15T15:31:40.767Z,10.43
2022-12-15T15:34:09.571Z,9.23
2022-12-15T15:36:39.424Z,10.63
2022-12-15T15:39:13.268Z,9.77
2022-12-15T15:41:42.971Z,13.83
2022-12-15T15:44:14.601Z,11.47
2022-12-15T15:46:47.837Z,11.87
2022-12-15T15:49:19.341Z,12.17
2022-12-15T15:51:47.324Z,12.83
2022-12-15T15:54:18.594Z,12.43
2022-12-15T15:56:47.884Z,14.57
2022-12-15T15:59:17.565Z,14.63
2022-12-15T16:01:46.601Z,10.73
2022-12-15T16:04:15.514Z,11.27
2022-12-15T16:06:47.502Z,10.83
2022-12-15T16:09:17.189Z,11.27
2022-12-15T16:11:49.609Z,10.97
2022-12-15T16:14:19.772Z,12.77
2022-12-15T16:16:48.360Z,12.53
2022-12-15T16:19:16.456Z,11.40
2022-12-15T16:21:44.569Z,10.20
2022-12-15T16:24:16.539Z,10.63
2022-12-15T16:26:48.973Z,12.23
2022-12-15T16:29:18.849Z,11.70
2022-12-15T16:31:47.815Z,10.50
2022-12-15T16:34:17.668Z,11.20
2022-12-15T16:36:46.559Z,10.40
2022-12-15T16:39:25.756Z,11.57
2022-12-15T16:41:56.505Z,12.20
2022-12-15T16:44:24.563Z,11.30
2022-12-15T16:46:52.886Z,13.43
2022-12-15T16:49:20.800Z,14.27
2022-12-15T16:51:52.275Z,14.07
2022-12-15T16:54:22.570Z,15.30
2022-12-15T16:56:52.416Z,15.53
2022-12-15T16:59:35.067Z,19.47
2022-12-15T17:02:15.544Z,19.90
2022-12-15T17:04:43.575Z,17.23
2022-12-15T17:07:19.786Z,17.60
2022-12-15T17:09:49.400Z,21.27
2022-12-15T17:12:18.744Z,18.53
2022-12-15T17:14:48.345Z,20.87
2022-12-15T17:17:17.853Z,17.33
2022-12-15T17:20:19.849Z,19.97
2022-12-15T17:22:34.899Z,19.23
2022-12-15T17:25:03.293Z,20.30
2022-12-15T17:27:31.890Z,20.50
2022-12-15T17:30:02.868Z,20.67
2022-12-15T17:32:30.856Z,17.67
2022-12-15T17:34:58.924Z,15.13
2022-12-15T17:37:31.862Z,14.33
2022-12-15T17:40:03.115Z,14.93
2022-12-15T17:42:31.107Z,15.43
2022-12-15T17:44:59.119Z,15.33
2022-12-15T17:47:30.486Z,16.07
2022-12-15T17:49:58.262Z,11.87
2022-12-15T17:52:29.295Z,12.57
2022-12-15T17:54:57.496Z,14.40
2022-12-15T17:57:26.163Z,13.13
2022-12-15T17:59:55.976Z,13.37
2022-12-15T18:02:23.879Z,15.17
2022-12-15T18:04:54.246Z,13.43
2022-12-15T18:07:24.757Z,14.23
2022-12-15T18:09:53.497Z,13.20
2022-12-15T18:12:24.364Z,14.83
2022-12-15T18:14:52.332Z,16.20
2022-12-15T18:17:21.489Z,17.10
2022-12-15T18:19:50.017Z,13.33
2022-12-15T18:22:23.153Z,14.07
2022-12-15T18:24:53.932Z,16.90
2022-12-15T18:27:23.777Z,21.30
2022-12-15T18:29:52.836Z,17.77
2022-12-15T18:32:23.615Z,17.27
2022-12-15T18:34:51.744Z,16.90
2022-12-15T18:37:23.799Z,15.63
2022-12-15T18:39:52.711Z,16.43
2022-12-15T18:42:23.163Z,13.83
2022-12-15T18:44:53.436Z,14.53
2022-12-15T18:47:25.128Z,14.47
2022-12-15T18:49:52.971Z,15.97
2022-12-15T18:52:30.071Z,16.93
2022-12-15T18:55:00.906Z,13.60
2022-12-15T18:57:32.521Z,14.83
2022-12-15T19:00:04.303Z,13.30
2022-12-15T19:02:37.115Z,13.47
2022-12-15T19:05:06.357Z,12.57
2022-12-15T19:07:36.837Z,12.30
2022-12-15T19:10:06.832Z,13.90
2022-12-15T19:12:34.835Z,12.83
2022-12-15T19:15:03.575Z,14.23
2022-12-15T19:17:48.611Z,11.87
2022-12-15T19:20:36.589Z,13.43
2022-12-15T19:23:07.947Z,12.90
2022-12-15T19:25:37.083Z,12.33
2022-12-15T19:28:08.122Z,13.13
2022-12-15T19:30:41.743Z,13.20
2022-12-15T19:33:12.329Z,14.40
2022-12-15T19:35:42.533Z,15.30
2022-12-15T19:38:19.580Z,15.10
2022-12-15T19:40:47.631Z,17.07
2022-12-15T19:43:16.887Z,16.77
2022-12-15T19:45:45.244Z,16.97
2022-12-15T19:48:14.446Z,14.83
2022-12-15T19:50:44.700Z,15.63
2022-12-15T19:53:18.233Z,13.03
2022-12-15T19:55:46.199Z,14.67
2022-12-15T19:58:28.136Z,14.83
2022-12-15T20:00:58.655Z,11.83
2022-12-15T20:03:27.745Z,13.70
2022-12-15T20:05:57.231Z,13.00
2022-12-15T20:08:30.765Z,13.10
2022-12-15T20:10:59.203Z,13.77
2022-12-15T20:13:27.024Z,12.80
2022-12-15T20:15:55.410Z,14.13
2022-12-15T20:18:23.487Z,13.37
2022-12-15T20:20:51.937Z,13.50
2022-12-15T20:23:24.133Z,14.93
2022-12-15T20:25:56.196Z,13.63
2022-12-15T20:28:26.199Z,28.23
2022-12-15T20:30:54.823Z,28.53
2022-12-15T20:33:23.199Z,21.00
2022-12-15T20:35:52.784Z,23.50
2022-12-15T20:38:26.672Z,26.47
2022-12-15T20:40:57.598Z,15.83
2022-12-15T20:43:27.970Z,15.03
2022-12-15T20:46:04.257Z,12.50
2022-12-15T20:48:34.268Z,13.57
2022-12-15T20:51:07.423Z,14.20
2022-12-15T20:53:37.705Z,13.73
2022-12-15T20:56:08.677Z,13.83
2022-12-15T20:58:39.601Z,12.63
2022-12-15T21:01:18.130Z,16.00
2022-12-15T21:03:46.481Z,13.90
2022-12-15T21:06:14.815Z,13.97
2022-12-15T21:08:43.390Z,12.47
2022-12-15T21:11:16.541Z,13.80
2022-12-15T21:13:44.818Z,14.53
2022-12-15T21:16:16.869Z,12.83
2022-12-15T21:19:18.487Z,12.30
2022-12-15T21:21:35.396Z,11.30
2022-12-15T21:24:09.085Z,13.07
2022-12-15T21:26:38.443Z,13.00
2022-12-15T21:29:13.626Z,12.23
2022-12-15T21:31:41.586Z,11.83
2022-12-15T21:34:09.543Z,12.47
2022-12-15T21:36:38.815Z,13.00
2022-12-15T21:39:08.525Z,13.23
2022-12-15T21:41:36.545Z,16.07
2022-12-15T21:44:07.291Z,16.70
2022-12-15T21:46:36.146Z,18.30
2022-12-15T21:49:15.113Z,17.90
2022-12-15T21:51:44.910Z,17.97
2022-12-15T21:54:18.419Z,23.67
2022-12-15T21:56:46.433Z,21.10
2022-12-15T21:59:17.990Z,18.93
2022-12-15T22:01:47.073Z,16.33
2022-12-15T22:04:19.340Z,15.17
2022-12-15T22:06:50.527Z,16.33
2022-12-15T22:09:20.773Z,17.27
2022-12-15T22:11:50.809Z,15.80
2022-12-15T22:14:26.380Z,14.87
2022-12-15T22:16:55.451Z,14.40
2022-12-15T22:19:25.550Z,15.37
2022-12-15T22:21:53.461Z,12.00
2022-12-15T22:24:22.567Z,15.33
2022-12-15T22:26:50.263Z,11.93
2022-12-15T22:29:20.505Z,12.43
2022-12-15T22:31:50.661Z,11.53
2022-12-15T22:34:22.227Z,11.90
2022-12-15T22:36:52.398Z,11.60
2022-12-15T22:39:20.695Z,11.70
2022-12-15T22:41:50.240Z,11.90
2022-12-15T22:44:22.734Z,11.30
2022-12-15T22:46:54.159Z,11.93
2022-12-15T22:49:25.221Z,12.37
2022-12-15T22:51:53.456Z,12.50
2022-12-15T22:54:24.568Z,12.53
2022-12-15T22:56:56.562Z,13.63
2022-12-15T22:59:28.628Z,12.73
2022-12-15T23:01:57.975Z,12.57
2022-12-15T23:04:26.150Z,11.57
2022-12-15T23:06:55.403Z,12.20
2022-12-15T23:09:23.589Z,12.63
2022-12-15T23:11:50.361Z,13.13
2022-12-15T23:14:40.171Z,13.27
2022-12-15T23:17:08.515Z,14.20
2022-12-15T23:19:36.465Z,13.77
2022-12-15T23:22:04.346Z,14.80
2022-12-15T23:24:32.842Z,13.53
2022-12-15T23:27:00.882Z,13.60
2022-12-15T23:29:29.875Z,14.13
2022-12-15T23:31:58.065Z,13.03
2022-12-15T23:34:27.366Z,15.23
2022-12-15T23:36:55.348Z,14.87
2022-12-15T23:39:23.071Z,14.53
2022-12-15T23:41:51.021Z,13.33
2022-12-15T23:44:19.066Z,14.90
2022-12-15T23:46:49.114Z,16.27
2022-12-15T23:49:17.196Z,14.33
2022-12-15T23:51:46.883Z,15.00
2022-12-15T23:54:15.888Z,13.40
2022-12-15T23:56:44.085Z,13.77
2022-12-15T23:59:11.981Z,18.43
